createdAt,value
2023-04-16T00:01:13.567Z,98674.67
2023-04-16T00:04:01.136Z,98678.52
2023-04-16T00:06:50.628Z,98679.25
2023-04-16T00:09:37.844Z,98681.02
2023-04-16T00:12:25.549Z,98680.11
2023-04-16T00:15:12.807Z,98677.33
2023-04-16T00:18:00.528Z,98682.12
2023-04-16T00:20:48.581Z,98682.69
2023-04-16T00:23:36.549Z,98685.56
2023-04-16T00:26:23.763Z,98684.09
2023-04-16T00:29:11.991Z,98681.62
2023-04-16T00:31:59.240Z,98687.88
2023-04-16T00:34:46.927Z,98689.39
2023-04-16T00:37:34.221Z,98689.05
2023-04-16T00:40:21.824Z,98689.14
2023-04-16T00:43:09.304Z,98687.29
2023-04-16T00:45:56.967Z,98689.59
2023-04-16T00:48:45.640Z,98694.98
2023-04-16T00:51:36.799Z,98703.09
2023-04-16T00:54:25.465Z,98706.54
2023-04-16T00:57:14.523Z,98707.40
2023-04-16T01:00:09.991Z,98705.51
2023-04-16T01:06:23.436Z,98705.61
2023-04-16T01:09:13.050Z,98710.27
2023-04-16T01:12:02.186Z,98716.36
2023-04-16T01:14:51.351Z,98712.80
2023-04-16T01:17:40.496Z,98715.92
2023-04-16T01:20:29.651Z,98713.39
2023-04-16T01:23:19.667Z,98719.45
2023-04-16T01:26:08.605Z,98718.95
2023-04-16T01:28:57.574Z,98720.17
2023-04-16T01:31:46.964Z,98725.37
2023-04-16T01:34:48.025Z,98724.90
2023-04-16T01:37:37.234Z,98727.57
2023-04-16T01:40:26.280Z,98725.97
2023-04-16T01:43:15.820Z,98726.20
2023-04-16T01:46:18.688Z,98731.80
2023-04-16T01:49:08.000Z,98732.87
2023-04-16T01:51:57.709Z,98733.66
2023-04-16T01:54:46.780Z,98736.73
2023-04-16T01:57:35.871Z,98735.52
2023-04-16T02:00:25.214Z,98738.48
2023-04-16T02:03:17.815Z,98743.73
2023-04-16T02:06:06.761Z,98742.77
2023-04-16T02:08:56.208Z,98747.39
2023-04-16T02:11:45.123Z,98751.08
2023-04-16T02:14:34.240Z,98751.02
2023-04-16T02:17:23.743Z,98749.02
2023-04-16T02:20:13.885Z,98752.30
2023-04-16T02:23:15.044Z,98756.58
2023-04-16T02:26:03.973Z,98757.80
2023-04-16T02:28:52.932Z,98759.40
2023-04-16T02:31:44.994Z,98757.23
2023-04-16T02:34:34.751Z,98761.70
2023-04-16T02:37:23.681Z,98765.69
2023-04-16T02:40:12.476Z,98770.31
2023-04-16T02:43:01.735Z,98772.31
2023-04-16T02:45:50.421Z,98774.95
2023-04-16T02:48:39.194Z,98774.90
2023-04-16T02:51:27.805Z,98778.83
2023-04-16T02:54:16.735Z,98781.36
2023-04-16T02:57:06.224Z,98781.04
2023-04-16T02:59:55.074Z,98779.02
2023-04-16T03:02:44.115Z,98783.98
2023-04-16T03:05:33.025Z,98787.36
2023-04-16T03:08:21.757Z,98789.30
2023-04-16T03:11:10.676Z,98796.08
2023-04-16T03:13:59.582Z,98797.11
2023-04-16T03:16:48.518Z,98799.00
2023-04-16T03:19:37.308Z,98800.05
2023-04-16T03:22:26.436Z,98800.77
2023-04-16T03:25:15.105Z,98802.05
2023-04-16T03:28:04.176Z,98801.70
2023-04-16T03:30:53.727Z,98805.92
2023-04-16T03:33:42.755Z,98805.14
2023-04-16T03:36:32.603Z,98803.95
2023-04-16T03:39:21.628Z,98809.66
2023-04-16T03:42:10.368Z,98806.21
2023-04-16T03:44:59.563Z,98805.29
2023-04-16T03:47:52.612Z,98804.64
2023-04-16T03:50:48.116Z,98808.00
2023-04-16T03:53:37.773Z,98812.74
2023-04-16T03:56:26.844Z,98816.45
2023-04-16T03:59:15.899Z,98821.33
2023-04-16T04:02:06.327Z,98825.45
2023-04-16T04:04:55.334Z,98828.92
2023-04-16T04:07:45.409Z,98831.52
2023-04-16T04:10:36.228Z,98829.78
2023-04-16T04:13:26.513Z,98831.61
2023-04-16T04:16:15.511Z,98835.63
2023-04-16T04:19:06.147Z,98834.52
2023-04-16T04:21:55.434Z,98831.64
2023-04-16T04:24:44.319Z,98834.55
2023-04-16T04:27:33.080Z,98840.86
2023-04-16T04:30:21.928Z,98848.31
2023-04-16T04:33:11.128Z,98850.98
2023-04-16T04:36:00.317Z,98852.78
2023-04-16T04:38:49.702Z,98856.98
2023-04-16T04:41:39.451Z,98861.63
2023-04-16T04:44:28.251Z,98865.73
2023-04-16T04:47:17.270Z,98869.85
2023-04-16T04:50:06.629Z,98874.71
2023-04-16T04:52:55.892Z,98874.00
2023-04-16T04:55:44.821Z,98873.89
2023-04-16T04:58:33.643Z,98878.60
2023-04-16T05:01:22.322Z,98877.93
2023-04-16T05:04:11.345Z,98885.36
2023-04-16T05:07:00.166Z,98887.86
2023-04-16T05:09:49.000Z,98893.21
2023-04-16T05:12:37.689Z,98899.67
2023-04-16T05:15:26.613Z,98905.77
2023-04-16T05:18:15.776Z,98906.81
2023-04-16T05:21:04.841Z,98914.67
2023-04-16T05:23:54.382Z,98917.62
2023-04-16T05:26:43.309Z,98916.71
2023-04-16T05:29:32.031Z,98918.80
2023-04-16T05:32:20.955Z,98917.61
2023-04-16T05:35:09.998Z,98920.80
2023-04-16T05:37:58.720Z,98925.48
2023-04-16T05:40:47.483Z,98918.64
2023-04-16T05:43:36.128Z,98916.86
2023-04-16T05:46:24.918Z,98920.61
2023-04-16T05:49:14.512Z,98925.26
2023-04-16T05:52:06.335Z,98926.97
2023-04-16T05:54:54.976Z,98934.27
2023-04-16T05:57:43.648Z,98934.95
2023-04-16T06:00:34.816Z,98935.55
2023-04-16T06:03:23.491Z,98936.52
2023-04-16T06:06:12.373Z,98938.41
2023-04-16T06:09:01.000Z,98940.20
2023-04-16T06:11:50.605Z,98945.56
2023-04-16T06:14:39.247Z,98949.77
2023-04-16T06:17:28.251Z,98952.59
2023-04-16T06:20:17.012Z,98955.50
2023-04-16T06:23:05.606Z,98960.04
2023-04-16T06:25:54.575Z,98962.55
2023-04-16T06:28:43.546Z,98967.91
2023-04-16T06:31:32.315Z,98969.10
2023-04-16T06:34:21.333Z,98972.14
2023-04-16T06:37:10.820Z,98980.20
2023-04-16T06:39:59.513Z,98978.38
2023-04-16T06:42:48.463Z,98983.94
2023-04-16T06:45:37.436Z,98985.09
2023-04-16T06:48:26.376Z,98989.48
2023-04-16T06:51:15.612Z,98987.48
2023-04-16T06:54:04.292Z,98987.95
2023-04-16T06:56:53.293Z,98984.27
2023-04-16T06:59:42.209Z,98981.91
2023-04-16T07:02:31.385Z,98987.69
2023-04-16T07:05:20.110Z,98990.19
2023-04-16T07:08:08.865Z,98997.66
2023-04-16T07:10:57.567Z,98999.33
2023-04-16T07:13:46.581Z,99001.00
2023-04-16T07:16:35.381Z,99005.55
2023-04-16T07:19:24.241Z,99009.42
2023-04-16T07:22:13.383Z,99015.77
2023-04-16T07:25:02.372Z,99020.56
2023-04-16T07:27:51.926Z,99023.51
2023-04-16T07:30:41.182Z,99030.91
2023-04-16T07:33:30.030Z,99036.51
2023-04-16T07:36:18.897Z,99042.20
2023-04-16T07:39:07.874Z,99045.39
2023-04-16T07:41:56.966Z,99045.76
2023-04-16T07:44:45.696Z,99048.95
2023-04-16T07:47:34.359Z,99049.29
2023-04-16T07:50:23.161Z,99049.91
2023-04-16T07:53:12.313Z,99054.64
2023-04-16T07:56:01.053Z,99053.81
2023-04-16T07:58:50.064Z,99054.13
2023-04-16T08:01:38.966Z,99058.52
2023-04-16T08:04:27.942Z,99063.36
2023-04-16T08:07:17.140Z,99068.19
2023-04-16T08:10:06.744Z,99064.31
2023-04-16T08:12:55.791Z,99068.19
2023-04-16T08:15:44.742Z,99070.77
2023-04-16T08:18:33.352Z,99074.27
2023-04-16T08:21:22.697Z,99076.03
2023-04-16T08:24:11.971Z,99083.69
2023-04-16T08:27:11.565Z,99084.91
2023-04-16T08:30:08.333Z,99088.23
2023-04-16T08:32:57.151Z,99084.45
2023-04-16T08:35:45.859Z,99087.52
2023-04-16T08:38:34.503Z,99091.19
2023-04-16T08:41:24.921Z,99095.27
2023-04-16T08:44:28.410Z,99101.95
2023-04-16T08:47:17.742Z,99101.63
2023-04-16T08:50:07.358Z,99098.92
2023-04-16T08:53:00.775Z,99099.69
2023-04-16T08:55:51.989Z,99101.72
2023-04-16T08:58:41.894Z,99110.98
2023-04-16T09:01:31.275Z,99110.23
2023-04-16T09:04:21.322Z,99112.84
2023-04-16T09:07:10.868Z,99117.36
2023-04-16T09:10:00.623Z,99115.58
2023-04-16T09:12:50.675Z,99117.73
2023-04-16T09:15:39.810Z,99116.23
2023-04-16T09:18:28.793Z,99119.77
2023-04-16T09:21:17.442Z,99128.79
2023-04-16T09:33:25.226Z,99137.20
2023-04-16T09:36:14.216Z,99137.29
2023-04-16T09:39:03.946Z,99140.16
2023-04-16T09:41:54.785Z,99146.42
2023-04-16T09:44:43.930Z,99148.19
2023-04-16T09:47:41.500Z,99149.55
2023-04-16T09:50:30.805Z,99147.05
2023-04-16T09:53:30.819Z,99143.54
2023-04-16T09:56:24.967Z,99145.65
2023-04-16T09:59:18.132Z,99146.98
2023-04-16T10:02:14.669Z,99145.75
2023-04-16T10:05:05.150Z,99150.43
2023-04-16T10:07:59.617Z,99149.73
2023-04-16T10:10:48.680Z,99145.98
2023-04-16T10:13:37.464Z,99146.83
2023-04-16T10:16:26.834Z,99144.02
2023-04-16T10:19:16.568Z,99138.96
2023-04-16T10:22:05.676Z,99137.93
2023-04-16T10:24:55.765Z,99137.77
2023-04-16T10:27:44.807Z,99136.45
2023-04-16T10:39:53.153Z,99140.44
2023-04-16T10:42:42.035Z,99142.31
2023-04-16T10:45:32.926Z,99148.27
2023-04-16T10:48:23.901Z,99145.61
2023-04-16T10:51:34.645Z,99147.71
2023-04-16T10:54:26.476Z,99145.79
2023-04-16T10:57:17.891Z,99146.70
2023-04-16T11:00:22.824Z,99150.34
2023-04-16T11:03:12.083Z,99150.05
2023-04-16T11:06:11.984Z,99152.56
2023-04-16T11:09:03.057Z,99158.55
2023-04-16T11:11:51.912Z,99161.70
2023-04-16T11:14:41.617Z,99165.92
2023-04-16T11:17:39.173Z,99162.27
2023-04-16T11:20:28.801Z,99157.04
2023-04-16T11:23:18.151Z,99152.15
2023-04-16T11:26:20.533Z,99152.17
2023-04-16T11:29:18.555Z,99152.41
2023-04-16T11:32:07.915Z,99154.24
2023-04-16T11:34:56.909Z,99155.61
2023-04-16T11:37:47.156Z,99158.19
2023-04-16T11:40:36.507Z,99155.48
2023-04-16T11:43:26.856Z,99154.34
2023-04-16T11:46:26.893Z,99154.77
2023-04-16T11:49:17.832Z,99153.21
2023-04-16T11:52:08.076Z,99155.90
2023-04-16T11:54:59.965Z,99157.83
2023-04-16T11:57:49.184Z,99157.41
2023-04-16T12:00:39.887Z,99153.56
2023-04-16T12:03:46.768Z,99154.48
2023-04-16T12:06:36.263Z,99150.73
2023-04-16T12:09:26.282Z,99153.15
2023-04-16T12:12:32.316Z,99156.23
2023-04-16T12:15:21.613Z,99156.70
2023-04-16T12:18:10.564Z,99153.29
2023-04-16T12:20:59.466Z,99151.75
2023-04-16T12:23:53.865Z,99150.86
2023-04-16T12:26:48.858Z,99148.57
2023-04-16T12:29:38.882Z,99149.42
2023-04-16T12:39:18.967Z,99149.67
2023-04-16T12:42:09.960Z,99149.96
2023-04-16T12:44:58.820Z,99154.90
2023-04-16T12:47:47.818Z,99157.16
2023-04-16T12:50:36.994Z,99156.70
2023-04-16T12:53:26.220Z,99153.89
2023-04-16T12:56:15.666Z,99151.17
2023-04-16T12:59:05.030Z,99154.77
2023-04-16T13:01:53.992Z,99156.88
2023-04-16T13:04:43.056Z,99160.39
2023-04-16T13:07:34.254Z,99162.84
2023-04-16T13:10:23.604Z,99164.16
2023-04-16T13:13:12.611Z,99160.83
2023-04-16T13:16:04.072Z,99163.55
2023-04-16T13:18:53.425Z,99164.02
2023-04-16T13:21:42.028Z,99166.29
2023-04-16T13:24:30.888Z,99165.09
2023-04-16T13:27:20.273Z,99165.88
2023-04-16T13:30:09.758Z,99167.31
2023-04-16T13:33:00.101Z,99162.21
2023-04-16T13:35:49.700Z,99165.00
2023-04-16T13:38:39.517Z,99163.34
2023-04-16T13:41:28.240Z,99164.34
2023-04-16T13:44:16.993Z,99157.70
2023-04-16T13:47:06.088Z,99153.48
2023-04-16T13:49:55.113Z,99156.50
2023-04-16T13:52:44.092Z,99154.76
2023-04-16T13:55:32.909Z,99155.23
2023-04-16T13:58:21.991Z,99154.93
2023-04-16T14:01:11.019Z,99152.60
2023-04-16T14:04:06.446Z,99152.74
2023-04-16T14:06:55.723Z,99160.27
2023-04-16T14:09:44.607Z,99157.86
2023-04-16T14:12:33.330Z,99160.02
2023-04-16T14:15:22.325Z,99159.51
2023-04-16T14:18:11.261Z,99162.13
2023-04-16T14:21:02.093Z,99161.17
2023-04-16T14:23:51.382Z,99160.20
2023-04-16T14:26:40.076Z,99159.01
2023-04-16T14:29:29.079Z,99157.69
2023-04-16T14:32:18.834Z,99159.29
2023-04-16T14:35:08.355Z,99158.67
2023-04-16T14:37:57.029Z,99162.02
2023-04-16T14:40:45.942Z,99160.02
2023-04-16T14:43:35.904Z,99155.67
2023-04-16T14:46:25.076Z,99154.86
2023-04-16T14:49:14.640Z,99157.11
2023-04-16T14:52:05.631Z,99158.79
2023-04-16T14:54:55.382Z,99159.67
2023-04-16T14:57:44.298Z,99157.03
2023-04-16T15:00:35.181Z,99162.06
2023-04-16T15:03:24.164Z,99162.79
2023-04-16T15:06:13.881Z,99165.57
2023-04-16T15:09:03.907Z,99164.98
2023-04-16T15:11:53.058Z,99163.26
2023-04-16T15:14:43.210Z,99166.03
2023-04-16T15:17:32.240Z,99169.25
2023-04-16T15:20:21.546Z,99167.52
2023-04-16T15:23:11.170Z,99164.27
2023-04-16T15:26:00.284Z,99162.37
2023-04-16T15:28:49.414Z,99158.07
2023-04-16T15:31:38.614Z,99163.05
2023-04-16T15:34:28.128Z,99163.29
2023-04-16T15:37:17.113Z,99166.36
2023-04-16T15:40:09.595Z,99167.79
2023-04-16T15:42:58.850Z,99171.94
2023-04-16T15:45:47.941Z,99169.77
2023-04-16T15:48:37.027Z,99171.66
2023-04-16T15:51:26.823Z,99175.08
2023-04-16T15:54:15.845Z,99170.17
2023-04-16T15:57:04.933Z,99174.05
2023-04-16T16:00:06.337Z,99174.39
2023-04-16T16:02:57.391Z,99180.98
2023-04-16T16:05:48.015Z,99179.76
2023-04-16T16:08:38.584Z,99183.36
2023-04-16T16:11:27.621Z,99186.50
2023-04-16T16:14:18.665Z,99188.04
2023-04-16T16:17:07.660Z,99191.18
2023-04-16T16:19:57.856Z,99195.54
2023-04-16T16:22:48.328Z,99200.80
2023-04-16T16:25:37.248Z,99204.04
2023-04-16T16:28:26.216Z,99203.13
2023-04-16T16:31:14.872Z,99202.79
2023-04-16T16:34:03.447Z,99205.06
2023-04-16T16:36:52.585Z,99209.55
2023-04-16T16:39:41.430Z,99209.29
2023-04-16T16:42:30.084Z,99216.36
2023-04-16T16:45:19.206Z,99214.73
2023-04-16T16:48:08.335Z,99216.06
2023-04-16T16:50:57.366Z,99214.58
2023-04-16T16:53:46.660Z,99219.23
2023-04-16T16:56:35.336Z,99216.91
2023-04-16T16:59:24.082Z,99219.34
2023-04-16T17:02:14.570Z,99223.55
2023-04-16T17:05:06.122Z,99228.75
2023-04-16T17:07:54.851Z,99230.41
2023-04-16T17:10:44.009Z,99233.95
2023-04-16T17:13:33.664Z,99234.31
2023-04-16T17:16:25.480Z,99242.55
2023-04-16T17:19:15.413Z,99245.48
2023-04-16T17:22:05.864Z,99247.27
2023-04-16T17:24:55.626Z,99248.02
2023-04-16T17:27:44.613Z,99251.71
2023-04-16T17:30:33.612Z,99256.81
2023-04-16T17:33:22.936Z,99259.66
2023-04-16T17:36:11.804Z,99256.36
2023-04-16T17:39:00.647Z,99259.11
2023-04-16T17:41:54.240Z,99259.95
2023-04-16T17:44:43.313Z,99262.33
2023-04-16T17:47:35.367Z,99269.38
2023-04-16T17:50:24.516Z,99271.19
2023-04-16T17:53:13.333Z,99275.05
2023-04-16T17:56:02.592Z,99272.23
2023-04-16T17:58:51.410Z,99277.45
2023-04-16T18:01:41.053Z,99279.27
2023-04-16T18:04:30.405Z,99284.38
2023-04-16T18:07:19.622Z,99285.98
2023-04-16T18:10:09.060Z,99283.31
2023-04-16T18:12:57.739Z,99289.70
2023-04-16T18:15:47.008Z,99286.95
2023-04-16T18:18:35.718Z,99295.45
2023-04-16T18:21:24.673Z,99293.94
2023-04-16T18:24:14.025Z,99300.04
2023-04-16T18:27:03.850Z,99298.20
2023-04-16T18:29:54.785Z,99299.73
2023-04-16T18:33:04.198Z,99297.54
2023-04-16T18:35:53.720Z,99298.33
2023-04-16T18:38:56.944Z,99299.58
2023-04-16T18:41:49.054Z,99299.86
2023-04-16T18:44:37.789Z,99302.33
2023-04-16T18:47:27.256Z,99303.98
2023-04-16T19:04:23.512Z,99321.21
2023-04-16T19:07:11.336Z,99323.15
2023-04-16T19:10:03.091Z,99323.67
2023-04-16T19:12:50.776Z,99319.54
2023-04-16T19:15:38.649Z,99321.57
2023-04-16T19:18:26.770Z,99321.97
2023-04-16T19:21:14.317Z,99323.23
2023-04-16T19:24:01.821Z,99330.45
2023-04-16T19:26:50.153Z,99330.55
2023-04-16T19:29:39.775Z,99331.55
2023-04-16T19:32:27.835Z,99335.95
2023-04-16T19:35:15.556Z,99337.41
2023-04-16T19:38:03.313Z,99338.77
2023-04-16T19:40:50.969Z,99336.56
2023-04-16T19:43:38.810Z,99333.90
2023-04-16T19:46:26.508Z,99331.07
2023-04-16T19:49:16.604Z,99334.99
2023-04-16T19:52:04.246Z,99332.77
2023-04-16T19:54:52.123Z,99333.36
2023-04-16T19:57:39.874Z,99336.90
2023-04-16T20:00:27.702Z,99339.63
2023-04-16T20:03:15.602Z,99340.73
2023-04-16T20:06:04.910Z,99343.67
2023-04-16T20:08:53.297Z,99338.81
2023-04-16T20:11:40.684Z,99338.98
2023-04-16T20:14:27.895Z,99337.13
2023-04-16T20:17:17.239Z,99335.12
2023-04-16T20:20:09.468Z,99337.71
2023-04-16T20:22:56.709Z,99336.67
2023-04-16T20:25:45.983Z,99338.37
2023-04-16T20:28:33.253Z,99335.48
2023-04-16T20:31:20.489Z,99337.45
2023-04-16T20:34:08.297Z,99335.48
2023-04-16T20:36:57.348Z,99335.85
2023-04-16T20:39:46.220Z,99338.77
2023-04-16T20:42:33.872Z,99338.38
2023-04-16T20:45:21.571Z,99340.63
2023-04-16T20:48:09.083Z,99338.98
2023-04-16T20:51:00.611Z,99337.17
2023-04-16T20:53:49.472Z,99338.45
2023-04-16T20:56:36.649Z,99337.36
2023-04-16T20:59:24.779Z,99338.83
2023-04-16T21:02:12.174Z,99341.29
2023-04-16T21:04:59.804Z,99338.15
2023-04-16T21:07:47.386Z,99339.61
2023-04-16T21:10:34.999Z,99338.32
2023-04-16T21:13:22.561Z,99335.15
2023-04-16T21:16:11.738Z,99339.99
2023-04-16T21:18:59.321Z,99337.24
2023-04-16T21:21:46.771Z,99339.61
2023-04-16T21:24:34.463Z,99335.33
2023-04-16T21:27:21.569Z,99337.17
2023-04-16T21:30:09.206Z,99342.10
2023-04-16T21:32:56.571Z,99347.36
2023-04-16T21:35:43.833Z,99343.11
2023-04-16T21:38:30.966Z,99337.39
2023-04-16T21:41:18.411Z,99339.64
2023-04-16T21:44:05.547Z,99335.06
2023-04-16T21:46:52.857Z,99335.34
2023-04-16T21:49:41.716Z,99335.05
2023-04-16T21:52:28.953Z,99336.69
2023-04-16T21:55:16.356Z,99337.19
2023-04-16T21:58:03.637Z,99344.61
2023-04-16T22:00:51.627Z,99340.45
2023-04-16T22:03:39.597Z,99335.85
2023-04-16T22:06:27.316Z,99336.33
2023-04-16T22:09:14.901Z,99336.39
2023-04-16T22:12:02.334Z,99338.48
2023-04-16T22:17:43.407Z,99331.89
2023-04-16T22:20:38.147Z,99332.66
2023-04-16T22:23:25.617Z,99334.08
2023-04-16T22:26:13.084Z,99331.98
2023-04-16T22:29:01.381Z,99334.96
2023-04-16T22:31:48.825Z,99333.98
2023-04-16T22:34:36.212Z,99337.48
2023-04-16T22:37:23.650Z,99335.95
2023-04-16T22:40:11.384Z,99335.84
2023-04-16T22:42:58.978Z,99338.73
2023-04-16T22:45:46.982Z,99343.58
2023-04-16T22:48:37.406Z,99347.05
2023-04-16T22:51:24.916Z,99341.76
2023-04-16T22:54:13.776Z,99343.64
2023-04-16T22:57:01.406Z,99340.91
2023-04-16T22:59:48.757Z,99340.81
2023-04-16T23:02:36.258Z,99333.79
2023-04-16T23:05:23.755Z,99340.38
2023-04-16T23:08:11.147Z,99342.08
2023-04-16T23:10:58.499Z,99338.07
2023-04-16T23:13:45.838Z,99335.33
2023-04-16T23:16:33.370Z,99333.05
2023-04-16T23:19:20.652Z,99330.57
2023-04-16T23:22:08.250Z,99330.77
2023-04-16T23:24:55.580Z,99331.98
2023-04-16T23:27:42.839Z,99331.27
2023-04-16T23:30:30.212Z,99333.15
2023-04-16T23:33:17.697Z,99330.05
2023-04-16T23:36:05.540Z,99331.50
2023-04-16T23:38:53.026Z,99323.50
2023-04-16T23:41:40.357Z,99323.73
2023-04-16T23:44:27.574Z,99321.71
2023-04-16T23:47:14.877Z,99321.19
2023-04-16T23:50:02.535Z,99322.69
2023-04-16T23:52:49.846Z,99319.43
2023-04-16T23:55:37.594Z,99319.32
2023-04-16T23:58:26.153Z,99319.55
